createdAt,value
2019-03-08T00:00:42.687Z,0.60
2019-03-08T00:03:12.718Z,0.50
2019-03-08T00:05:40.803Z,0.50
2019-03-08T00:08:08.839Z,0.50
2019-03-08T00:10:38.041Z,0.50
2019-03-08T00:13:06.191Z,0.60
2019-03-08T00:15:34.674Z,0.60
2019-03-08T00:18:02.932Z,0.50
2019-03-08T00:20:31.004Z,0.50
2019-03-08T00:22:59.101Z,0.57
2019-03-08T00:25:27.205Z,0.50
2019-03-08T00:27:55.364Z,0.33
2019-03-08T00:30:24.875Z,0.50
2019-03-08T00:32:53.217Z,0.60
2019-03-08T00:35:22.551Z,0.60
2019-03-08T00:37:50.593Z,0.40
2019-03-08T00:40:18.749Z,0.40
2019-03-08T00:42:46.814Z,0.40
2019-03-08T00:45:14.931Z,0.40
2019-03-08T00:47:43.685Z,0.40
2019-03-08T00:50:12.309Z,0.40
2019-03-08T00:52:40.697Z,0.50
2019-03-08T00:55:08.978Z,0.33
2019-03-08T00:57:37.062Z,0.40
2019-03-08T01:00:11.220Z,0.40
2019-03-08T01:02:41.071Z,0.50
2019-03-08T01:05:10.089Z,0.30
2019-03-08T01:07:38.475Z,0.40
2019-03-08T01:10:09.927Z,0.40
2019-03-08T01:12:38.052Z,0.20
2019-03-08T01:15:07.269Z,0.30
2019-03-08T01:17:35.340Z,0.30
2019-03-08T01:20:03.885Z,0.23
2019-03-08T01:22:31.964Z,0.40
2019-03-08T01:25:01.410Z,0.40
2019-03-08T01:27:29.565Z,0.30
2019-03-08T01:29:57.869Z,0.30
2019-03-08T01:32:25.959Z,0.50
2019-03-08T01:34:54.144Z,0.27
2019-03-08T01:37:22.333Z,0.30
2019-03-08T01:39:50.499Z,0.30
2019-03-08T01:42:18.560Z,0.20
2019-03-08T01:44:46.833Z,0.20
2019-03-08T01:47:14.973Z,0.30
2019-03-08T01:49:43.022Z,0.40
2019-03-08T01:52:12.181Z,0.40
2019-03-08T01:54:40.254Z,0.30
2019-03-08T01:57:08.346Z,0.40
2019-03-08T01:59:37.630Z,0.30
2019-03-08T02:02:05.719Z,0.40
2019-03-08T02:04:33.742Z,0.40
2019-03-08T02:07:02.158Z,0.37
2019-03-08T02:09:30.207Z,0.30
2019-03-08T02:11:58.658Z,0.40
2019-03-08T02:14:27.016Z,0.33
2019-03-08T02:16:55.063Z,0.20
2019-03-08T02:19:23.154Z,0.33
2019-03-08T02:21:52.998Z,0.30
2019-03-08T02:24:21.050Z,0.40
2019-03-08T02:26:49.249Z,0.30
2019-03-08T02:29:17.989Z,0.50
2019-03-08T02:31:46.058Z,0.40
2019-03-08T02:34:13.976Z,0.50
2019-03-08T02:36:42.473Z,0.40
2019-03-08T02:39:11.870Z,0.50
2019-03-08T02:41:41.952Z,0.40
2019-03-08T02:44:10.396Z,0.37
2019-03-08T02:46:40.762Z,0.50
2019-03-08T02:49:08.864Z,0.40
2019-03-08T02:51:37.662Z,0.40
2019-03-08T02:54:07.023Z,0.47
2019-03-08T02:56:35.091Z,0.50
2019-03-08T02:59:03.340Z,0.60
2019-03-08T03:01:31.446Z,0.50
2019-03-08T03:03:59.511Z,0.40
2019-03-08T03:06:27.936Z,0.40
2019-03-08T03:08:56.083Z,0.40
2019-03-08T03:11:24.258Z,0.53
2019-03-08T03:13:54.167Z,0.40
2019-03-08T03:16:22.802Z,0.60
2019-03-08T03:18:50.979Z,0.50
2019-03-08T03:21:19.025Z,0.50
2019-03-08T03:23:47.121Z,0.43
2019-03-08T03:26:15.482Z,0.40
2019-03-08T03:28:44.563Z,0.60
2019-03-08T03:31:12.641Z,0.30
2019-03-08T03:33:40.785Z,0.40
2019-03-08T03:36:09.255Z,0.30
2019-03-08T03:38:39.074Z,0.40
2019-03-08T03:41:08.837Z,0.40
2019-03-08T03:43:37.142Z,0.30
2019-03-08T03:46:05.491Z,1.10
2019-03-08T03:48:33.704Z,1.00
2019-03-08T03:51:01.829Z,0.70
2019-03-08T03:53:30.060Z,0.30
2019-03-08T03:55:58.178Z,0.40
2019-03-08T03:58:26.236Z,0.30
2019-03-08T04:00:55.076Z,0.47
2019-03-08T04:03:23.441Z,0.40
2019-03-08T04:05:51.719Z,0.40
2019-03-08T04:08:19.884Z,0.50
2019-03-08T04:10:47.949Z,0.37
2019-03-08T04:13:16.554Z,0.30
2019-03-08T04:15:45.812Z,0.40
2019-03-08T04:18:13.890Z,0.40
2019-03-08T04:20:42.367Z,0.50
2019-03-08T04:23:10.439Z,0.70
2019-03-08T04:25:38.845Z,0.60
2019-03-08T04:28:07.094Z,0.40
2019-03-08T04:30:35.392Z,0.40
2019-03-08T04:33:03.429Z,0.43
2019-03-08T04:35:31.626Z,0.50
2019-03-08T04:37:59.683Z,0.60
2019-03-08T04:40:27.745Z,0.30
2019-03-08T04:42:56.005Z,0.50
2019-03-08T04:45:24.370Z,0.50
2019-03-08T04:47:52.535Z,0.37
2019-03-08T04:50:33.318Z,0.40
2019-03-08T04:53:01.428Z,0.40
2019-03-08T04:55:29.790Z,0.40
2019-03-08T04:57:57.924Z,0.40
2019-03-08T05:00:26.158Z,0.40
2019-03-08T05:02:54.416Z,0.57
2019-03-08T05:05:22.517Z,0.40
2019-03-08T05:07:50.669Z,0.40
2019-03-08T05:10:18.790Z,0.30
2019-03-08T05:12:46.995Z,0.40
2019-03-08T05:15:16.170Z,0.60
2019-03-08T05:17:45.228Z,0.40
2019-03-08T05:20:13.263Z,0.40
2019-03-08T05:22:42.929Z,0.37
2019-03-08T05:25:11.251Z,0.30
2019-03-08T05:27:39.610Z,0.40
2019-03-08T05:30:08.616Z,0.53
2019-03-08T05:32:36.737Z,0.70
2019-03-08T05:35:05.724Z,0.40
2019-03-08T05:37:33.788Z,0.43
2019-03-08T05:40:02.294Z,0.60
2019-03-08T05:42:31.202Z,0.30
2019-03-08T05:44:59.359Z,0.40
2019-03-08T05:47:27.556Z,0.37
2019-03-08T05:49:55.627Z,0.40
2019-03-08T05:52:23.695Z,0.40
2019-03-08T05:54:52.011Z,0.60
2019-03-08T05:57:20.316Z,0.60
2019-03-08T05:59:48.360Z,0.50
2019-03-08T06:02:16.432Z,0.50
2019-03-08T06:04:44.482Z,0.60
2019-03-08T06:07:12.966Z,0.47
2019-03-08T06:09:42.381Z,0.50
2019-03-08T06:12:11.040Z,0.50
2019-03-08T06:14:39.458Z,0.50
2019-03-08T06:17:07.551Z,0.60
2019-03-08T06:19:36.783Z,0.50
2019-03-08T06:22:04.853Z,0.60
2019-03-08T06:24:32.883Z,0.50
2019-03-08T06:27:01.092Z,0.40
2019-03-08T06:29:29.521Z,0.40
2019-03-08T06:31:57.596Z,0.60
2019-03-08T06:34:25.667Z,0.43
2019-03-08T06:36:53.791Z,0.50
2019-03-08T06:39:21.856Z,0.50
2019-03-08T06:41:50.306Z,0.70
2019-03-08T06:44:18.739Z,0.57
2019-03-08T06:46:47.426Z,0.60
2019-03-08T06:49:15.482Z,0.40
2019-03-08T06:51:43.540Z,0.60
2019-03-08T06:54:12.005Z,0.50
2019-03-08T06:56:40.050Z,0.47
2019-03-08T06:59:16.251Z,0.50
2019-03-08T07:01:44.403Z,0.50
2019-03-08T07:04:12.762Z,0.63
2019-03-08T07:06:40.827Z,0.60
2019-03-08T07:09:09.848Z,0.57
2019-03-08T07:11:38.097Z,0.40
2019-03-08T07:14:06.579Z,0.50
2019-03-08T07:16:35.004Z,0.43
2019-03-08T07:19:03.952Z,0.60
2019-03-08T07:21:55.890Z,0.53
2019-03-08T07:24:31.087Z,0.60
2019-03-08T07:27:17.445Z,0.50
2019-03-08T07:29:56.590Z,0.63
2019-03-08T07:32:44.671Z,0.40
2019-03-08T07:35:51.064Z,0.40
2019-03-08T07:38:57.229Z,0.50
2019-03-08T07:41:43.734Z,0.70
2019-03-08T07:44:38.189Z,0.60
2019-03-08T07:47:17.918Z,0.50
2019-03-08T07:49:52.644Z,0.50
2019-03-08T07:52:38.907Z,0.60
2019-03-08T07:55:32.681Z,0.60
2019-03-08T07:58:23.228Z,0.57
2019-03-08T08:01:19.769Z,0.60
2019-03-08T08:04:19.850Z,0.60
2019-03-08T08:07:05.320Z,0.50
2019-03-08T08:10:00.295Z,0.40
2019-03-08T08:12:54.244Z,0.53
2019-03-08T08:15:38.712Z,0.50
2019-03-08T08:18:27.021Z,0.57
2019-03-08T08:21:17.735Z,0.70
2019-03-08T08:24:04.251Z,0.50
2019-03-08T08:26:51.323Z,0.67
2019-03-08T08:29:37.791Z,0.50
2019-03-08T08:32:24.804Z,0.47
2019-03-08T08:35:08.491Z,0.50
2019-03-08T08:38:05.374Z,0.70
2019-03-08T08:40:55.973Z,0.50
2019-03-08T08:43:42.102Z,0.60
2019-03-08T08:46:28.393Z,0.63
2019-03-08T08:49:14.986Z,0.50
2019-03-08T08:51:49.362Z,0.57
2019-03-08T08:54:27.235Z,0.60
2019-03-08T08:57:04.196Z,0.40
2019-03-08T08:59:51.159Z,0.50
2019-03-08T09:02:51.208Z,0.87
2019-03-08T09:05:28.828Z,0.60
2019-03-08T09:08:16.530Z,0.60
2019-03-08T09:11:19.435Z,0.60
2019-03-08T09:14:02.367Z,0.53
2019-03-08T09:16:39.771Z,0.43
2019-03-08T09:19:42.755Z,0.50
2019-03-08T09:22:22.497Z,0.40
2019-03-08T09:25:11.349Z,0.67
2019-03-08T09:28:01.914Z,0.43
2019-03-08T09:30:58.769Z,0.60
2019-03-08T09:33:52.754Z,0.50
2019-03-08T09:36:30.671Z,0.63
2019-03-08T09:39:11.598Z,0.63
2019-03-08T09:41:59.322Z,0.50
2019-03-08T09:44:59.067Z,0.70
2019-03-08T09:47:36.505Z,0.50
2019-03-08T09:50:27.785Z,0.67
2019-03-08T09:53:14.435Z,0.63
2019-03-08T09:55:47.996Z,0.60
2019-03-08T09:58:27.304Z,0.83
2019-03-08T10:01:16.864Z,0.70
2019-03-08T10:04:01.917Z,0.70
2019-03-08T10:06:58.795Z,0.57
2019-03-08T10:10:05.391Z,0.60
2019-03-08T10:12:41.961Z,0.70
2019-03-08T10:15:28.279Z,0.53
2019-03-08T10:18:14.731Z,0.73
2019-03-08T10:21:01.370Z,0.50
2019-03-08T10:23:49.310Z,0.50
2019-03-08T10:26:27.052Z,0.70
2019-03-08T10:29:14.760Z,0.70
2019-03-08T10:32:05.065Z,0.60
2019-03-08T10:34:53.901Z,0.50
2019-03-08T10:37:41.713Z,0.67
2019-03-08T10:40:34.104Z,0.70
2019-03-08T10:43:16.231Z,0.70
2019-03-08T10:46:15.900Z,0.80
2019-03-08T10:49:06.935Z,0.93
2019-03-08T10:51:43.628Z,1.20
2019-03-08T10:54:30.491Z,1.33
2019-03-08T10:57:15.415Z,1.00
2019-03-08T11:00:08.934Z,0.80
2019-03-08T11:03:15.042Z,0.70
2019-03-08T11:06:17.831Z,0.63
2019-03-08T11:08:51.320Z,0.90
2019-03-08T11:11:57.203Z,0.70
2019-03-08T11:14:43.706Z,0.70
2019-03-08T11:17:31.136Z,0.50
2019-03-08T11:20:21.510Z,0.40
2019-03-08T11:22:59.526Z,0.63
2019-03-08T11:25:52.976Z,0.50
2019-03-08T11:28:43.303Z,0.93
2019-03-08T11:31:42.647Z,1.00
2019-03-08T11:34:15.748Z,0.70
2019-03-08T11:37:15.148Z,0.60
2019-03-08T11:39:48.691Z,0.70
2019-03-08T11:42:32.744Z,0.50
2019-03-08T11:45:18.422Z,0.50
2019-03-08T11:48:05.004Z,0.83
2019-03-08T11:50:55.785Z,0.70
2019-03-08T11:53:56.275Z,0.80
2019-03-08T11:56:56.162Z,0.60
2019-03-08T11:59:56.820Z,0.60
2019-03-08T12:02:58.507Z,0.47
2019-03-08T12:05:43.138Z,0.77
2019-03-08T12:08:43.728Z,0.50
2019-03-08T12:11:36.571Z,0.40
2019-03-08T12:14:22.929Z,0.40
2019-03-08T12:17:09.957Z,0.60
2019-03-08T12:19:49.506Z,0.50
2019-03-08T12:22:47.016Z,0.60
2019-03-08T12:25:49.617Z,0.60
2019-03-08T12:28:36.315Z,0.50
2019-03-08T12:31:22.837Z,0.60
2019-03-08T12:34:08.346Z,0.67
2019-03-08T12:36:49.739Z,0.57
2019-03-08T12:39:33.668Z,0.50
2019-03-08T12:42:13.805Z,0.53
2019-03-08T12:44:50.503Z,0.73
2019-03-08T12:47:41.193Z,0.43
2019-03-08T12:50:15.152Z,0.50
2019-03-08T12:53:13.904Z,0.50
2019-03-08T12:56:05.497Z,0.50
2019-03-08T12:58:50.173Z,0.53
2019-03-08T13:01:44.553Z,0.50
2019-03-08T13:04:50.546Z,0.80
2019-03-08T13:07:50.257Z,0.50
2019-03-08T13:10:18.320Z,0.60
2019-03-08T13:12:48.513Z,0.47
2019-03-08T13:15:16.801Z,0.47
2019-03-08T13:17:44.875Z,0.80
2019-03-08T13:20:16.627Z,0.60
2019-03-08T13:22:44.795Z,0.50
2019-03-08T13:25:14.498Z,0.40
2019-03-08T13:27:42.583Z,0.50
2019-03-08T13:30:16.419Z,0.40
2019-03-08T13:32:44.489Z,0.50
2019-03-08T13:35:13.987Z,0.40
2019-03-08T13:37:43.164Z,0.50
2019-03-08T13:40:12.295Z,0.53
2019-03-08T13:42:42.185Z,0.50
2019-03-08T13:45:14.225Z,0.50
2019-03-08T13:47:42.295Z,0.40
2019-03-08T13:50:11.632Z,0.70
2019-03-08T13:52:39.797Z,0.50
2019-03-08T13:55:09.854Z,0.40
2019-03-08T13:57:39.885Z,0.53
2019-03-08T14:00:11.420Z,0.60
2019-03-08T14:02:39.838Z,0.67
2019-03-08T14:05:08.463Z,0.57
2019-03-08T14:07:36.836Z,0.60
2019-03-08T14:10:07.429Z,0.50
2019-03-08T14:12:35.799Z,0.80
2019-03-08T14:15:04.756Z,0.50
2019-03-08T14:17:33.921Z,0.70
2019-03-08T14:20:01.995Z,0.67
2019-03-08T14:22:30.728Z,0.53
2019-03-08T14:24:58.800Z,0.60
2019-03-08T14:27:26.869Z,0.70
2019-03-08T14:29:58.814Z,0.70
2019-03-08T14:32:25.529Z,0.63
2019-03-08T14:34:55.043Z,0.60
2019-03-08T14:37:23.161Z,0.60
2019-03-08T14:39:51.218Z,0.60
2019-03-08T14:42:40.478Z,0.60
2019-03-08T14:45:15.863Z,0.70
2019-03-08T14:47:46.238Z,0.40
2019-03-08T14:50:14.396Z,0.60
2019-03-08T14:52:42.457Z,0.80
2019-03-08T14:55:14.478Z,0.67
2019-03-08T14:57:42.541Z,0.60
2019-03-08T15:00:17.925Z,0.40
2019-03-08T15:02:47.160Z,0.60
2019-03-08T15:05:19.133Z,0.50
2019-03-08T15:07:46.001Z,0.60
2019-03-08T15:10:16.722Z,0.50
2019-03-08T15:12:49.127Z,0.67
2019-03-08T15:15:16.900Z,0.57
2019-03-08T15:17:45.110Z,0.70
2019-03-08T15:20:15.787Z,0.50
2019-03-08T15:22:45.158Z,0.47
2019-03-08T15:25:15.088Z,0.57
2019-03-08T15:27:43.214Z,0.70
2019-03-08T15:30:13.434Z,0.63
2019-03-08T15:32:41.480Z,1.10
2019-03-08T15:35:10.714Z,0.70
2019-03-08T15:37:44.095Z,0.63
2019-03-08T15:40:14.029Z,0.53
2019-03-08T15:42:42.078Z,0.50
2019-03-08T15:45:10.846Z,0.63
2019-03-08T15:47:39.236Z,0.60
2019-03-08T15:50:11.119Z,0.87
2019-03-08T15:52:39.207Z,0.50
2019-03-08T15:55:07.572Z,0.50
2019-03-08T15:57:36.189Z,0.60
2019-03-08T16:00:11.135Z,0.70
2019-03-08T16:02:39.584Z,0.33
2019-03-08T16:05:08.640Z,0.70
2019-03-08T16:07:36.733Z,0.70
2019-03-08T16:10:06.240Z,0.50
2019-03-08T16:12:34.480Z,0.50
2019-03-08T16:15:03.522Z,0.73
2019-03-08T16:17:32.166Z,1.00
2019-03-08T16:20:02.961Z,0.70
2019-03-08T16:22:31.791Z,0.80
2019-03-08T16:24:59.859Z,0.90
2019-03-08T16:27:28.458Z,0.80
2019-03-08T16:29:56.869Z,1.30
2019-03-08T16:32:34.919Z,1.00
2019-03-08T16:35:03.858Z,0.80
2019-03-08T16:37:54.364Z,0.80
2019-03-08T16:40:37.946Z,0.80
2019-03-08T16:43:33.409Z,0.70
2019-03-08T16:46:09.945Z,0.77
2019-03-08T16:48:51.767Z,0.77
2019-03-08T16:51:38.095Z,0.87
2019-03-08T16:54:14.079Z,0.70
2019-03-08T16:57:04.366Z,0.77
2019-03-08T16:59:48.007Z,0.60
2019-03-08T17:02:26.769Z,0.77
2019-03-08T17:05:29.154Z,0.70
2019-03-08T17:08:17.202Z,0.70
2019-03-08T17:11:07.488Z,0.50
2019-03-08T17:14:07.415Z,0.60
2019-03-08T17:17:13.241Z,0.80
2019-03-08T17:20:04.561Z,0.90
2019-03-08T17:22:48.090Z,0.80
2019-03-08T17:25:29.033Z,0.80
2019-03-08T17:28:17.114Z,0.90
2019-03-08T17:31:11.130Z,0.80
2019-03-08T17:34:01.984Z,0.90
2019-03-08T17:36:42.773Z,1.30
2019-03-08T17:39:31.301Z,1.30
2019-03-08T17:42:15.684Z,0.83
2019-03-08T17:45:02.008Z,0.90
2019-03-08T17:48:06.669Z,0.90
2019-03-08T17:51:03.358Z,0.83
2019-03-08T17:53:46.537Z,0.90
2019-03-08T17:56:40.190Z,0.80
2019-03-08T17:59:33.433Z,1.00
2019-03-08T18:02:21.154Z,0.67
2019-03-08T18:04:56.128Z,0.70
2019-03-08T18:07:36.260Z,0.80
2019-03-08T18:10:14.327Z,0.50
2019-03-08T18:13:03.024Z,0.60
2019-03-08T18:15:39.601Z,0.60
2019-03-08T18:18:27.503Z,0.57
2019-03-08T18:21:07.331Z,0.73
2019-03-08T18:24:01.302Z,0.70
2019-03-08T18:26:40.200Z,0.70
2019-03-08T18:29:45.736Z,0.73
2019-03-08T18:32:45.461Z,0.77
2019-03-08T18:35:27.872Z,0.80
2019-03-08T18:38:24.758Z,0.90
2019-03-08T18:41:21.261Z,0.90
2019-03-08T18:44:14.650Z,1.20
2019-03-08T18:47:20.625Z,1.17
2019-03-08T18:50:11.241Z,1.17
2019-03-08T18:52:50.257Z,0.87
2019-03-08T18:55:36.678Z,1.10
2019-03-08T18:58:15.441Z,1.17
2019-03-08T19:00:52.473Z,1.00
2019-03-08T19:03:40.163Z,0.87
2019-03-08T19:06:33.761Z,0.70
2019-03-08T19:09:16.371Z,0.70
2019-03-08T19:12:10.359Z,1.00
2019-03-08T19:14:56.951Z,0.80
2019-03-08T19:17:51.568Z,0.87
2019-03-08T19:20:34.956Z,1.07
2019-03-08T19:23:25.234Z,0.97
2019-03-08T19:26:19.245Z,0.87
2019-03-08T19:29:16.471Z,0.87
2019-03-08T19:31:57.357Z,0.80
2019-03-08T19:34:44.316Z,0.87
2019-03-08T19:37:37.729Z,0.93
2019-03-08T19:40:15.338Z,0.90
2019-03-08T19:43:16.391Z,0.90
2019-03-08T19:46:15.945Z,1.00
2019-03-08T19:48:56.744Z,1.03
2019-03-08T19:51:47.054Z,1.00
2019-03-08T19:54:34.772Z,1.10
2019-03-08T19:57:22.445Z,0.90
2019-03-08T20:00:05.966Z,0.80
2019-03-08T20:02:45.150Z,0.90
2019-03-08T20:05:35.493Z,0.97
2019-03-08T20:08:27.130Z,0.80
2019-03-08T20:11:15.007Z,1.10
2019-03-08T20:14:02.844Z,1.60
2019-03-08T20:16:40.736Z,1.07
2019-03-08T20:19:28.674Z,1.77
2019-03-08T20:22:16.670Z,1.80
2019-03-08T20:25:22.389Z,2.00
2019-03-08T20:28:09.279Z,1.57
2019-03-08T20:30:57.008Z,1.50
2019-03-08T20:33:45.296Z,1.23
2019-03-08T20:36:27.064Z,1.00
2019-03-08T20:39:06.721Z,0.97
2019-03-08T20:41:44.725Z,0.87
2019-03-08T20:44:17.525Z,0.80
2019-03-08T20:47:08.105Z,1.00
2019-03-08T20:49:38.741Z,0.90
2019-03-08T20:52:07.099Z,0.80
2019-03-08T20:54:35.531Z,1.20
2019-03-08T20:57:03.878Z,1.00
2019-03-08T20:59:32.226Z,0.97
2019-03-08T21:02:00.359Z,0.97
2019-03-08T21:04:28.640Z,0.90
2019-03-08T21:06:56.993Z,0.83
2019-03-08T21:09:25.321Z,0.80
2019-03-08T21:11:53.489Z,1.00
2019-03-08T21:14:21.625Z,0.80
2019-03-08T21:16:50.072Z,0.70
2019-03-08T21:19:19.171Z,1.00
2019-03-08T21:21:47.329Z,0.80
2019-03-08T21:24:15.837Z,0.80
2019-03-08T21:26:44.905Z,0.60
2019-03-08T21:29:13.299Z,1.00
2019-03-08T21:31:41.865Z,0.70
2019-03-08T21:34:10.273Z,0.70
2019-03-08T21:36:38.635Z,0.80
2019-03-08T21:39:06.844Z,0.70
2019-03-08T21:41:35.904Z,1.07
2019-03-08T21:44:04.027Z,0.70
2019-03-08T21:46:32.167Z,1.00
2019-03-08T21:49:00.901Z,0.80
2019-03-08T21:51:29.361Z,0.73
2019-03-08T21:53:57.473Z,0.73
2019-03-08T21:56:25.588Z,0.70
2019-03-08T21:58:53.663Z,0.70
2019-03-08T22:01:22.375Z,0.90
2019-03-08T22:03:56.473Z,0.93
2019-03-08T22:06:24.827Z,0.90
2019-03-08T22:09:12.524Z,0.80
2019-03-08T22:11:43.129Z,0.70
2019-03-08T22:14:11.202Z,1.00
2019-03-08T22:16:39.331Z,0.80
2019-03-08T22:19:07.376Z,0.77
2019-03-08T22:21:35.777Z,0.90
2019-03-08T22:24:13.105Z,0.53
2019-03-08T22:26:34.640Z,0.70
2019-03-08T22:29:02.856Z,0.80
2019-03-08T22:31:30.924Z,0.87
2019-03-08T22:33:58.999Z,0.67
2019-03-08T22:36:27.109Z,0.77
2019-03-08T22:38:55.655Z,0.70
2019-03-08T22:41:24.199Z,0.77
2019-03-08T22:43:52.323Z,0.70
2019-03-08T22:46:20.393Z,0.60
2019-03-08T22:48:48.417Z,0.67
2019-03-08T22:51:16.462Z,0.80
2019-03-08T22:53:46.856Z,0.73
2019-03-08T22:56:14.915Z,0.70
2019-03-08T22:58:43.034Z,0.73
2019-03-08T23:01:14.680Z,0.50
2019-03-08T23:03:44.667Z,0.70
2019-03-08T23:06:14.252Z,0.50
2019-03-08T23:08:42.436Z,0.57
2019-03-08T23:11:10.505Z,0.73
2019-03-08T23:13:38.758Z,0.80
2019-03-08T23:16:06.995Z,0.70
2019-03-08T23:18:35.349Z,0.60
2019-03-08T23:21:03.515Z,0.70
2019-03-08T23:23:31.551Z,0.60
2019-03-08T23:25:59.729Z,0.60
2019-03-08T23:28:39.978Z,0.67
2019-03-08T23:31:20.055Z,0.70
2019-03-08T23:33:48.652Z,0.70
2019-03-08T23:36:16.714Z,0.70
2019-03-08T23:38:44.774Z,0.60
2019-03-08T23:41:12.838Z,0.67
2019-03-08T23:43:41.126Z,0.60
2019-03-08T23:46:10.281Z,0.60
2019-03-08T23:48:38.360Z,0.70
2019-03-08T23:51:07.625Z,0.60
2019-03-08T23:53:37.470Z,0.60
2019-03-08T23:56:05.815Z,0.70
2019-03-08T23:58:34.208Z,0.60
